sensor_id;sensor_type;location;lat;lon;timestamp;P1;durP1;ratioP1;P2;durP2;ratioP2
81180;SDS011;70650;51.408;7.132;2023-07-20T00:00:49;7.30;;;3.07;;
81180;SDS011;70650;51.408;7.132;2023-07-20T00:03:18;8.23;;;3.38;;
81180;SDS011;70650;51.408;7.132;2023-07-20T00:05:50;8.98;;;3.35;;
81180;SDS011;70650;51.408;7.132;2023-07-20T00:08:16;7.70;;;3.15;;
81180;SDS011;70650;51.408;7.132;2023-07-20T00:10:42;7.65;;;3.17;;
81180;SDS011;70650;51.408;7.132;2023-07-20T00:13:07;8.65;;;3.20;;
81180;SDS011;70650;51.408;7.132;2023-07-20T00:15:33;9.60;;;3.35;;
81180;SDS011;70650;51.408;7.132;2023-07-20T00:17:59;9.18;;;3.20;;
81180;SDS011;70650;51.408;7.132;2023-07-20T00:20:24;7.82;;;3.33;;
81180;SDS011;70650;51.408;7.132;2023-07-20T00:22:50;9.52;;;3.67;;
81180;SDS011;70650;51.408;7.132;2023-07-20T00:25:16;7.70;;;3.08;;
81180;SDS011;70650;51.408;7.132;2023-07-20T00:27:42;8.13;;;3.53;;
81180;SDS011;70650;51.408;7.132;2023-07-20T00:30:07;7.47;;;3.50;;
81180;SDS011;70650;51.408;7.132;2023-07-20T00:32:33;8.20;;;3.55;;
81180;SDS011;70650;51.408;7.132;2023-07-20T00:34:58;10.13;;;3.67;;
81180;SDS011;70650;51.408;7.132;2023-07-20T00:37:23;8.90;;;3.50;;
81180;SDS011;70650;51.408;7.132;2023-07-20T00:39:49;7.45;;;3.70;;
81180;SDS011;70650;51.408;7.132;2023-07-20T00:42:14;8.77;;;3.43;;
81180;SDS011;70650;51.408;7.132;2023-07-20T00:44:39;9.77;;;3.70;;
81180;SDS011;70650;51.408;7.132;2023-07-20T00:47:05;8.13;;;3.95;;
81180;SDS011;70650;51.408;7.132;2023-07-20T00:49:31;10.27;;;4.13;;
81180;SDS011;70650;51.408;7.132;2023-07-20T00:51:57;9.45;;;3.90;;
81180;SDS011;70650;51.408;7.132;2023-07-20T00:54:22;7.85;;;4.05;;
81180;SDS011;70650;51.408;7.132;2023-07-20T00:56:48;10.38;;;3.97;;
81180;SDS011;70650;51.408;7.132;2023-07-20T00:59:14;7.85;;;4.07;;
81180;SDS011;70650;51.408;7.132;2023-07-20T01:01:39;7.55;;;3.70;;
81180;SDS011;70650;51.408;7.132;2023-07-20T01:04:05;10.15;;;4.45;;
81180;SDS011;70650;51.408;7.132;2023-07-20T01:06:41;9.70;;;4.38;;
81180;SDS011;70650;51.408;7.132;2023-07-20T01:09:19;10.50;;;4.28;;
81180;SDS011;70650;51.408;7.132;2023-07-20T01:14:43;12.52;;;4.63;;
81180;SDS011;70650;51.408;7.132;2023-07-20T01:17:09;8.18;;;4.15;;
81180;SDS011;70650;51.408;7.132;2023-07-20T01:19:35;11.40;;;4.65;;
81180;SDS011;70650;51.408;7.132;2023-07-20T01:22:09;7.88;;;3.67;;
81180;SDS011;70650;51.408;7.132;2023-07-20T01:27:33;10.25;;;4.07;;
81180;SDS011;70650;51.408;7.132;2023-07-20T01:30:16;8.38;;;3.70;;
81180;SDS011;70650;51.408;7.132;2023-07-20T01:32:52;9.23;;;4.22;;
81180;SDS011;70650;51.408;7.132;2023-07-20T01:35:20;9.98;;;3.88;;
81180;SDS011;70650;51.408;7.132;2023-07-20T01:37:48;10.68;;;3.92;;
81180;SDS011;70650;51.408;7.132;2023-07-20T01:40:15;8.90;;;4.20;;
81180;SDS011;70650;51.408;7.132;2023-07-20T01:42:47;8.60;;;3.65;;
81180;SDS011;70650;51.408;7.132;2023-07-20T01:45:13;10.43;;;4.13;;
81180;SDS011;70650;51.408;7.132;2023-07-20T01:47:38;9.15;;;3.50;;
81180;SDS011;70650;51.408;7.132;2023-07-20T01:50:04;9.18;;;3.58;;
81180;SDS011;70650;51.408;7.132;2023-07-20T01:52:30;9.05;;;3.58;;
81180;SDS011;70650;51.408;7.132;2023-07-20T01:54:55;9.17;;;3.77;;
81180;SDS011;70650;51.408;7.132;2023-07-20T01:57:21;9.47;;;3.63;;
81180;SDS011;70650;51.408;7.132;2023-07-20T01:59:46;10.37;;;4.00;;
81180;SDS011;70650;51.408;7.132;2023-07-20T02:02:11;10.87;;;3.80;;
81180;SDS011;70650;51.408;7.132;2023-07-20T02:04:37;10.10;;;3.53;;
81180;SDS011;70650;51.408;7.132;2023-07-20T02:07:02;9.00;;;4.03;;
81180;SDS011;70650;51.408;7.132;2023-07-20T02:09:27;10.75;;;4.30;;
81180;SDS011;70650;51.408;7.132;2023-07-20T02:11:53;9.60;;;4.13;;
81180;SDS011;70650;51.408;7.132;2023-07-20T02:14:18;11.02;;;4.20;;
81180;SDS011;70650;51.408;7.132;2023-07-20T02:16:43;10.67;;;4.10;;
81180;SDS011;70650;51.408;7.132;2023-07-20T02:19:08;10.37;;;4.10;;
81180;SDS011;70650;51.408;7.132;2023-07-20T02:21:34;11.43;;;4.50;;
81180;SDS011;70650;51.408;7.132;2023-07-20T02:23:59;12.02;;;4.75;;
81180;SDS011;70650;51.408;7.132;2023-07-20T02:26:25;11.73;;;4.97;;
81180;SDS011;70650;51.408;7.132;2023-07-20T02:28:50;11.52;;;4.75;;
81180;SDS011;70650;51.408;7.132;2023-07-20T02:31:16;10.50;;;4.23;;
81180;SDS011;70650;51.408;7.132;2023-07-20T02:33:41;10.97;;;4.50;;
81180;SDS011;70650;51.408;7.132;2023-07-20T02:36:06;13.87;;;5.73;;
81180;SDS011;70650;51.408;7.132;2023-07-20T02:38:32;14.50;;;5.50;;
81180;SDS011;70650;51.408;7.132;2023-07-20T02:40:57;16.55;;;5.93;;
81180;SDS011;70650;51.408;7.132;2023-07-20T02:43:22;14.60;;;6.27;;
81180;SDS011;70650;51.408;7.132;2023-07-20T02:45:50;13.63;;;6.05;;
81180;SDS011;70650;51.408;7.132;2023-07-20T02:48:15;16.50;;;6.95;;
81180;SDS011;70650;51.408;7.132;2023-07-20T02:50:40;16.50;;;6.97;;
81180;SDS011;70650;51.408;7.132;2023-07-20T02:53:06;14.23;;;6.57;;
81180;SDS011;70650;51.408;7.132;2023-07-20T02:55:31;18.43;;;6.93;;
81180;SDS011;70650;51.408;7.132;2023-07-20T02:57:56;15.63;;;7.47;;
81180;SDS011;70650;51.408;7.132;2023-07-20T03:00:22;17.15;;;6.70;;
81180;SDS011;70650;51.408;7.132;2023-07-20T03:02:48;17.17;;;7.18;;
81180;SDS011;70650;51.408;7.132;2023-07-20T03:05:14;18.80;;;7.90;;
81180;SDS011;70650;51.408;7.132;2023-07-20T03:07:39;15.27;;;6.45;;
81180;SDS011;70650;51.408;7.132;2023-07-20T03:10:05;14.30;;;6.03;;
81180;SDS011;70650;51.408;7.132;2023-07-20T03:12:34;13.70;;;6.03;;
81180;SDS011;70650;51.408;7.132;2023-07-20T03:14:59;15.07;;;7.20;;
81180;SDS011;70650;51.408;7.132;2023-07-20T03:17:24;16.00;;;6.70;;
81180;SDS011;70650;51.408;7.132;2023-07-20T03:19:50;19.23;;;7.07;;
81180;SDS011;70650;51.408;7.132;2023-07-20T03:22:15;14.77;;;6.60;;
81180;SDS011;70650;51.408;7.132;2023-07-20T03:24:40;16.83;;;6.40;;
81180;SDS011;70650;51.408;7.132;2023-07-20T03:27:06;15.30;;;6.47;;
81180;SDS011;70650;51.408;7.132;2023-07-20T03:29:31;18.92;;;7.40;;
81180;SDS011;70650;51.408;7.132;2023-07-20T03:31:58;16.05;;;6.97;;
81180;SDS011;70650;51.408;7.132;2023-07-20T03:34:24;16.92;;;6.57;;
81180;SDS011;70650;51.408;7.132;2023-07-20T03:36:50;15.68;;;7.38;;
81180;SDS011;70650;51.408;7.132;2023-07-20T03:39:15;19.13;;;7.10;;
81180;SDS011;70650;51.408;7.132;2023-07-20T03:41:40;17.60;;;6.77;;
81180;SDS011;70650;51.408;7.132;2023-07-20T03:44:05;18.07;;;6.47;;
81180;SDS011;70650;51.408;7.132;2023-07-20T03:46:31;18.53;;;8.07;;
81180;SDS011;70650;51.408;7.132;2023-07-20T03:48:56;17.07;;;6.33;;
81180;SDS011;70650;51.408;7.132;2023-07-20T03:51:21;19.00;;;7.53;;
81180;SDS011;70650;51.408;7.132;2023-07-20T03:53:47;13.83;;;6.60;;
81180;SDS011;70650;51.408;7.132;2023-07-20T03:56:12;18.00;;;7.30;;
81180;SDS011;70650;51.408;7.132;2023-07-20T03:58:37;19.60;;;7.43;;
81180;SDS011;70650;51.408;7.132;2023-07-20T04:01:03;17.25;;;7.13;;
81180;SDS011;70650;51.408;7.132;2023-07-20T04:03:28;16.48;;;7.15;;
81180;SDS011;70650;51.408;7.132;2023-07-20T04:05:54;21.30;;;7.37;;
81180;SDS011;70650;51.408;7.132;2023-07-20T04:08:20;17.38;;;6.80;;
81180;SDS011;70650;51.408;7.132;2023-07-20T04:10:47;20.45;;;7.07;;
81180;SDS011;70650;51.408;7.132;2023-07-20T04:13:13;19.80;;;7.73;;
81180;SDS011;70650;51.408;7.132;2023-07-20T04:15:38;18.73;;;7.20;;
81180;SDS011;70650;51.408;7.132;2023-07-20T04:18:04;17.85;;;7.38;;
81180;SDS011;70650;51.408;7.132;2023-07-20T04:20:29;21.40;;;7.50;;
81180;SDS011;70650;51.408;7.132;2023-07-20T04:22:54;19.08;;;7.32;;
81180;SDS011;70650;51.408;7.132;2023-07-20T04:25:20;23.07;;;7.80;;
81180;SDS011;70650;51.408;7.132;2023-07-20T04:27:45;20.45;;;7.95;;
81180;SDS011;70650;51.408;7.132;2023-07-20T04:30:11;17.50;;;7.03;;
81180;SDS011;70650;51.408;7.132;2023-07-20T04:32:37;18.23;;;7.90;;
81180;SDS011;70650;51.408;7.132;2023-07-20T04:35:05;18.48;;;8.07;;
81180;SDS011;70650;51.408;7.132;2023-07-20T04:37:32;23.15;;;9.30;;
81180;SDS011;70650;51.408;7.132;2023-07-20T04:39:58;19.85;;;9.05;;
81180;SDS011;70650;51.408;7.132;2023-07-20T04:42:23;24.30;;;9.85;;
81180;SDS011;70650;51.408;7.132;2023-07-20T04:44:48;23.63;;;10.97;;
81180;SDS011;70650;51.408;7.132;2023-07-20T04:47:14;23.33;;;10.10;;
81180;SDS011;70650;51.408;7.132;2023-07-20T04:49:39;24.90;;;11.63;;
81180;SDS011;70650;51.408;7.132;2023-07-20T04:52:04;24.10;;;10.27;;
81180;SDS011;70650;51.408;7.132;2023-07-20T04:54:30;23.27;;;10.35;;
81180;SDS011;70650;51.408;7.132;2023-07-20T04:56:55;25.85;;;11.68;;
81180;SDS011;70650;51.408;7.132;2023-07-20T04:59:21;26.53;;;12.00;;
81180;SDS011;70650;51.408;7.132;2023-07-20T05:01:46;28.17;;;13.27;;
81180;SDS011;70650;51.408;7.132;2023-07-20T05:04:11;26.90;;;12.77;;
81180;SDS011;70650;51.408;7.132;2023-07-20T05:06:36;31.03;;;13.73;;
81180;SDS011;70650;51.408;7.132;2023-07-20T05:09:03;32.60;;;14.15;;
81180;SDS011;70650;51.408;7.132;2023-07-20T05:11:29;35.20;;;15.45;;
81180;SDS011;70650;51.408;7.132;2023-07-20T05:13:54;34.17;;;16.07;;
81180;SDS011;70650;51.408;7.132;2023-07-20T05:16:19;29.25;;;14.18;;
81180;SDS011;70650;51.408;7.132;2023-07-20T05:18:45;25.63;;;12.43;;
81180;SDS011;70650;51.408;7.132;2023-07-20T05:21:10;27.10;;;12.87;;
81180;SDS011;70650;51.408;7.132;2023-07-20T05:23:37;26.83;;;13.20;;
81180;SDS011;70650;51.408;7.132;2023-07-20T05:26:02;24.50;;;11.73;;
81180;SDS011;70650;51.408;7.132;2023-07-20T05:28:27;25.27;;;13.48;;
81180;SDS011;70650;51.408;7.132;2023-07-20T05:30:53;26.02;;;13.10;;
81180;SDS011;70650;51.408;7.132;2023-07-20T05:33:19;25.25;;;13.43;;
81180;SDS011;70650;51.408;7.132;2023-07-20T05:35:45;26.45;;;13.30;;
81180;SDS011;70650;51.408;7.132;2023-07-20T05:38:10;25.70;;;12.73;;
81180;SDS011;70650;51.408;7.132;2023-07-20T05:40:40;21.63;;;11.03;;
81180;SDS011;70650;51.408;7.132;2023-07-20T05:43:06;21.17;;;11.43;;
81180;SDS011;70650;51.408;7.132;2023-07-20T05:45:31;20.30;;;11.63;;
81180;SDS011;70650;51.408;7.132;2023-07-20T05:47:56;31.80;;;15.10;;
81180;SDS011;70650;51.408;7.132;2023-07-20T05:50:22;29.08;;;12.77;;
81180;SDS011;70650;51.408;7.132;2023-07-20T05:52:47;27.73;;;13.87;;
81180;SDS011;70650;51.408;7.132;2023-07-20T05:55:13;22.90;;;12.27;;
81180;SDS011;70650;51.408;7.132;2023-07-20T05:57:38;25.60;;;12.35;;
81180;SDS011;70650;51.408;7.132;2023-07-20T06:00:07;19.42;;;9.90;;
81180;SDS011;70650;51.408;7.132;2023-07-20T06:02:32;18.90;;;9.48;;
81180;SDS011;70650;51.408;7.132;2023-07-20T06:04:58;15.68;;;8.10;;
81180;SDS011;70650;51.408;7.132;2023-07-20T06:07:23;17.05;;;8.18;;
81180;SDS011;70650;51.408;7.132;2023-07-20T06:09:49;16.57;;;7.97;;
81180;SDS011;70650;51.408;7.132;2023-07-20T06:12:14;14.67;;;7.07;;
81180;SDS011;70650;51.408;7.132;2023-07-20T06:14:39;13.47;;;6.13;;
81180;SDS011;70650;51.408;7.132;2023-07-20T06:17:05;12.90;;;6.47;;
81180;SDS011;70650;51.408;7.132;2023-07-20T06:19:30;14.38;;;7.20;;
81180;SDS011;70650;51.408;7.132;2023-07-20T06:21:55;13.02;;;6.60;;
81180;SDS011;70650;51.408;7.132;2023-07-20T06:24:21;17.57;;;6.90;;
81180;SDS011;70650;51.408;7.132;2023-07-20T06:26:46;11.85;;;5.90;;
81180;SDS011;70650;51.408;7.132;2023-07-20T06:29:11;11.00;;;4.93;;
81180;SDS011;70650;51.408;7.132;2023-07-20T06:31:37;11.52;;;5.00;;
81180;SDS011;70650;51.408;7.132;2023-07-20T06:34:03;11.73;;;5.18;;
81180;SDS011;70650;51.408;7.132;2023-07-20T06:36:28;10.38;;;5.00;;
81180;SDS011;70650;51.408;7.132;2023-07-20T06:38:54;14.02;;;7.40;;
81180;SDS011;70650;51.408;7.132;2023-07-20T06:41:20;14.32;;;7.32;;
81180;SDS011;70650;51.408;7.132;2023-07-20T06:43:46;13.80;;;6.63;;
81180;SDS011;70650;51.408;7.132;2023-07-20T06:46:12;14.80;;;7.20;;
81180;SDS011;70650;51.408;7.132;2023-07-20T06:48:37;11.68;;;6.05;;
81180;SDS011;70650;51.408;7.132;2023-07-20T06:51:02;11.27;;;6.20;;
81180;SDS011;70650;51.408;7.132;2023-07-20T06:53:28;11.98;;;6.25;;
81180;SDS011;70650;51.408;7.132;2023-07-20T06:55:54;10.85;;;5.63;;
81180;SDS011;70650;51.408;7.132;2023-07-20T06:58:22;11.35;;;6.10;;
81180;SDS011;70650;51.408;7.132;2023-07-20T07:00:48;13.13;;;6.43;;
81180;SDS011;70650;51.408;7.132;2023-07-20T07:03:13;12.98;;;6.85;;
81180;SDS011;70650;51.408;7.132;2023-07-20T07:05:39;17.02;;;9.65;;
81180;SDS011;70650;51.408;7.132;2023-07-20T07:08:07;20.53;;;11.03;;
81180;SDS011;70650;51.408;7.132;2023-07-20T07:10:34;21.60;;;10.48;;
81180;SDS011;70650;51.408;7.132;2023-07-20T07:13:00;25.63;;;11.98;;
81180;SDS011;70650;51.408;7.132;2023-07-20T07:15:26;20.52;;;10.55;;
81180;SDS011;70650;51.408;7.132;2023-07-20T07:17:52;18.90;;;9.40;;
81180;SDS011;70650;51.408;7.132;2023-07-20T07:20:17;15.80;;;7.55;;
81180;SDS011;70650;51.408;7.132;2023-07-20T07:22:43;15.83;;;8.27;;
81180;SDS011;70650;51.408;7.132;2023-07-20T07:25:09;19.63;;;9.23;;
81180;SDS011;70650;51.408;7.132;2023-07-20T07:27:34;14.40;;;7.07;;
81180;SDS011;70650;51.408;7.132;2023-07-20T07:30:00;14.27;;;7.60;;
81180;SDS011;70650;51.408;7.132;2023-07-20T07:32:26;16.30;;;8.10;;
81180;SDS011;70650;51.408;7.132;2023-07-20T07:34:51;14.10;;;7.10;;
81180;SDS011;70650;51.408;7.132;2023-07-20T07:37:17;16.77;;;8.43;;
81180;SDS011;70650;51.408;7.132;2023-07-20T07:39:44;17.30;;;8.85;;
81180;SDS011;70650;51.408;7.132;2023-07-20T07:42:09;18.33;;;9.18;;
81180;SDS011;70650;51.408;7.132;2023-07-20T07:44:35;16.60;;;9.07;;
81180;SDS011;70650;51.408;7.132;2023-07-20T07:47:00;17.37;;;9.30;;
81180;SDS011;70650;51.408;7.132;2023-07-20T07:49:26;20.33;;;9.97;;
81180;SDS011;70650;51.408;7.132;2023-07-20T07:51:51;17.63;;;8.60;;
81180;SDS011;70650;51.408;7.132;2023-07-20T07:54:16;16.27;;;8.48;;
81180;SDS011;70650;51.408;7.132;2023-07-20T07:56:41;19.30;;;9.67;;
81180;SDS011;70650;51.408;7.132;2023-07-20T07:59:09;16.60;;;8.65;;
81180;SDS011;70650;51.408;7.132;2023-07-20T08:01:34;12.50;;;6.80;;
81180;SDS011;70650;51.408;7.132;2023-07-20T08:03:59;11.83;;;6.50;;
81180;SDS011;70650;51.408;7.132;2023-07-20T08:06:24;12.43;;;6.60;;
81180;SDS011;70650;51.408;7.132;2023-07-20T08:08:50;14.23;;;6.90;;
81180;SDS011;70650;51.408;7.132;2023-07-20T08:11:16;12.90;;;7.43;;
81180;SDS011;70650;51.408;7.132;2023-07-20T08:13:42;13.82;;;7.38;;
81180;SDS011;70650;51.408;7.132;2023-07-20T08:16:08;14.20;;;7.33;;
81180;SDS011;70650;51.408;7.132;2023-07-20T08:18:33;14.23;;;8.10;;
81180;SDS011;70650;51.408;7.132;2023-07-20T08:20:58;13.63;;;8.07;;
81180;SDS011;70650;51.408;7.132;2023-07-20T08:23:24;12.67;;;7.30;;
81180;SDS011;70650;51.408;7.132;2023-07-20T08:25:49;13.82;;;7.35;;
81180;SDS011;70650;51.408;7.132;2023-07-20T08:28:15;15.45;;;8.90;;
81180;SDS011;70650;51.408;7.132;2023-07-20T08:33:13;7.75;;;4.78;;
81180;SDS011;70650;51.408;7.132;2023-07-20T08:35:40;9.80;;;4.28;;
81180;SDS011;70650;51.408;7.132;2023-07-20T08:38:05;8.52;;;4.93;;
81180;SDS011;70650;51.408;7.132;2023-07-20T08:40:39;12.75;;;5.53;;
81180;SDS011;70650;51.408;7.132;2023-07-20T08:43:06;9.38;;;5.88;;
81180;SDS011;70650;51.408;7.132;2023-07-20T08:45:32;9.70;;;5.80;;
81180;SDS011;70650;51.408;7.132;2023-07-20T08:47:59;9.27;;;4.75;;
81180;SDS011;70650;51.408;7.132;2023-07-20T08:50:26;8.63;;;4.55;;
81180;SDS011;70650;51.408;7.132;2023-07-20T08:52:55;8.43;;;4.07;;
81180;SDS011;70650;51.408;7.132;2023-07-20T08:55:22;7.65;;;3.75;;
81180;SDS011;70650;51.408;7.132;2023-07-20T08:57:49;6.88;;;3.33;;
81180;SDS011;70650;51.408;7.132;2023-07-20T09:00:16;6.60;;;3.20;;
81180;SDS011;70650;51.408;7.132;2023-07-20T09:02:44;6.63;;;3.17;;
81180;SDS011;70650;51.408;7.132;2023-07-20T09:05:10;7.63;;;3.67;;
81180;SDS011;70650;51.408;7.132;2023-07-20T09:07:38;8.25;;;4.13;;
81180;SDS011;70650;51.408;7.132;2023-07-20T09:10:05;5.90;;;2.33;;
81180;SDS011;70650;51.408;7.132;2023-07-20T09:12:31;5.68;;;2.38;;
81180;SDS011;70650;51.408;7.132;2023-07-20T09:14:59;4.82;;;2.15;;
81180;SDS011;70650;51.408;7.132;2023-07-20T09:17:25;7.18;;;2.80;;
81180;SDS011;70650;51.408;7.132;2023-07-20T09:19:51;7.25;;;3.25;;
81180;SDS011;70650;51.408;7.132;2023-07-20T09:22:16;6.95;;;3.15;;
81180;SDS011;70650;51.408;7.132;2023-07-20T09:24:42;7.57;;;3.22;;
81180;SDS011;70650;51.408;7.132;2023-07-20T09:27:08;5.47;;;2.72;;
81180;SDS011;70650;51.408;7.132;2023-07-20T09:29:34;5.80;;;3.38;;
81180;SDS011;70650;51.408;7.132;2023-07-20T09:32:00;5.10;;;2.50;;
81180;SDS011;70650;51.408;7.132;2023-07-20T09:34:29;5.82;;;2.85;;
81180;SDS011;70650;51.408;7.132;2023-07-20T09:37:00;4.78;;;2.50;;
81180;SDS011;70650;51.408;7.132;2023-07-20T09:39:26;5.97;;;2.70;;
81180;SDS011;70650;51.408;7.132;2023-07-20T09:41:52;6.47;;;2.97;;
81180;SDS011;70650;51.408;7.132;2023-07-20T09:44:17;5.47;;;2.60;;
81180;SDS011;70650;51.408;7.132;2023-07-20T09:46:47;5.35;;;2.50;;
81180;SDS011;70650;51.408;7.132;2023-07-20T09:49:13;5.20;;;2.60;;
81180;SDS011;70650;51.408;7.132;2023-07-20T09:51:39;5.60;;;2.70;;
81180;SDS011;70650;51.408;7.132;2023-07-20T09:54:07;5.13;;;2.70;;
81180;SDS011;70650;51.408;7.132;2023-07-20T09:56:32;4.25;;;2.60;;
81180;SDS011;70650;51.408;7.132;2023-07-20T09:58:58;4.85;;;2.33;;
81180;SDS011;70650;51.408;7.132;2023-07-20T10:01:24;4.07;;;2.17;;
81180;SDS011;70650;51.408;7.132;2023-07-20T10:03:52;4.45;;;1.98;;
81180;SDS011;70650;51.408;7.132;2023-07-20T10:06:20;4.63;;;1.95;;
81180;SDS011;70650;51.408;7.132;2023-07-20T10:08:49;3.38;;;1.40;;
81180;SDS011;70650;51.408;7.132;2023-07-20T10:11:17;3.88;;;1.55;;
81180;SDS011;70650;51.408;7.132;2023-07-20T10:13:45;3.42;;;1.33;;
81180;SDS011;70650;51.408;7.132;2023-07-20T10:16:22;3.25;;;1.40;;
81180;SDS011;70650;51.408;7.132;2023-07-20T10:18:51;3.33;;;1.35;;
81180;SDS011;70650;51.408;7.132;2023-07-20T10:21:24;1.77;;;0.90;;
81180;SDS011;70650;51.408;7.132;2023-07-20T10:23:50;1.85;;;0.80;;
81180;SDS011;70650;51.408;7.132;2023-07-20T10:26:16;2.92;;;0.80;;
81180;SDS011;70650;51.408;7.132;2023-07-20T10:28:41;4.10;;;1.00;;
81180;SDS011;70650;51.408;7.132;2023-07-20T10:31:07;1.20;;;0.63;;
81180;SDS011;70650;51.408;7.132;2023-07-20T10:33:34;2.63;;;1.00;;
81180;SDS011;70650;51.408;7.132;2023-07-20T10:36:00;3.67;;;1.00;;
81180;SDS011;70650;51.408;7.132;2023-07-20T10:41:18;3.78;;;0.93;;
81180;SDS011;70650;51.408;7.132;2023-07-20T10:43:44;2.28;;;0.80;;
81180;SDS011;70650;51.408;7.132;2023-07-20T10:46:11;2.30;;;0.80;;
81180;SDS011;70650;51.408;7.132;2023-07-20T10:48:58;3.22;;;0.90;;
81180;SDS011;70650;51.408;7.132;2023-07-20T10:51:27;1.77;;;0.60;;
81180;SDS011;70650;51.408;7.132;2023-07-20T10:53:54;1.67;;;0.57;;
81180;SDS011;70650;51.408;7.132;2023-07-20T10:56:22;1.20;;;0.50;;
81180;SDS011;70650;51.408;7.132;2023-07-20T10:58:50;1.95;;;0.60;;
81180;SDS011;70650;51.408;7.132;2023-07-20T11:01:21;1.13;;;0.50;;
81180;SDS011;70650;51.408;7.132;2023-07-20T11:03:56;2.28;;;0.73;;
81180;SDS011;70650;51.408;7.132;2023-07-20T11:11:44;2.40;;;0.80;;
81180;SDS011;70650;51.408;7.132;2023-07-20T11:14:21;2.60;;;0.90;;
81180;SDS011;70650;51.408;7.132;2023-07-20T11:16:51;3.08;;;1.10;;
81180;SDS011;70650;51.408;7.132;2023-07-20T11:19:21;2.28;;;0.90;;
81180;SDS011;70650;51.408;7.132;2023-07-20T11:21:58;2.15;;;0.90;;
81180;SDS011;70650;51.408;7.132;2023-07-20T11:24:23;2.33;;;0.90;;
81180;SDS011;70650;51.408;7.132;2023-07-20T11:26:52;2.60;;;1.05;;
81180;SDS011;70650;51.408;7.132;2023-07-20T11:29:19;2.50;;;0.90;;
81180;SDS011;70650;51.408;7.132;2023-07-20T11:31:45;3.00;;;1.10;;
81180;SDS011;70650;51.408;7.132;2023-07-20T11:34:12;3.15;;;1.13;;
81180;SDS011;70650;51.408;7.132;2023-07-20T11:36:42;3.13;;;1.20;;
81180;SDS011;70650;51.408;7.132;2023-07-20T11:39:12;2.63;;;1.13;;
81180;SDS011;70650;51.408;7.132;2023-07-20T11:41:41;3.13;;;1.45;;
81180;SDS011;70650;51.408;7.132;2023-07-20T11:44:09;4.90;;;1.60;;
81180;SDS011;70650;51.408;7.132;2023-07-20T11:46:38;3.75;;;1.60;;
81180;SDS011;70650;51.408;7.132;2023-07-20T11:49:04;3.25;;;1.30;;
81180;SDS011;70650;51.408;7.132;2023-07-20T11:51:30;2.90;;;1.33;;
81180;SDS011;70650;51.408;7.132;2023-07-20T11:53:57;2.65;;;1.23;;
81180;SDS011;70650;51.408;7.132;2023-07-20T11:56:23;2.97;;;1.30;;
81180;SDS011;70650;51.408;7.132;2023-07-20T11:58:49;5.32;;;1.60;;
81180;SDS011;70650;51.408;7.132;2023-07-20T12:01:15;3.27;;;1.50;;
81180;SDS011;70650;51.408;7.132;2023-07-20T12:03:42;2.78;;;1.38;;
81180;SDS011;70650;51.408;7.132;2023-07-20T12:06:09;3.95;;;1.35;;
81180;SDS011;70650;51.408;7.132;2023-07-20T12:08:37;2.75;;;1.20;;
81180;SDS011;70650;51.408;7.132;2023-07-20T12:11:04;3.17;;;1.10;;
81180;SDS011;70650;51.408;7.132;2023-07-20T12:13:36;3.03;;;1.17;;
81180;SDS011;70650;51.408;7.132;2023-07-20T12:16:13;3.47;;;1.50;;
81180;SDS011;70650;51.408;7.132;2023-07-20T12:21:05;3.53;;;1.47;;
81180;SDS011;70650;51.408;7.132;2023-07-20T12:23:38;2.67;;;1.23;;
81180;SDS011;70650;51.408;7.132;2023-07-20T12:26:07;3.25;;;1.42;;
81180;SDS011;70650;51.408;7.132;2023-07-20T12:28:35;3.25;;;1.60;;
81180;SDS011;70650;51.408;7.132;2023-07-20T12:31:05;3.00;;;1.33;;
81180;SDS011;70650;51.408;7.132;2023-07-20T12:33:31;4.43;;;1.80;;
81180;SDS011;70650;51.408;7.132;2023-07-20T12:35:56;4.05;;;1.50;;
81180;SDS011;70650;51.408;7.132;2023-07-20T12:38:23;3.03;;;1.50;;
81180;SDS011;70650;51.408;7.132;2023-07-20T12:40:49;3.30;;;1.50;;
81180;SDS011;70650;51.408;7.132;2023-07-20T12:43:14;3.17;;;1.20;;
81180;SDS011;70650;51.408;7.132;2023-07-20T12:45:40;4.03;;;1.20;;
81180;SDS011;70650;51.408;7.132;2023-07-20T12:48:06;4.18;;;1.50;;
81180;SDS011;70650;51.408;7.132;2023-07-20T12:50:31;2.90;;;1.20;;
81180;SDS011;70650;51.408;7.132;2023-07-20T12:52:57;3.20;;;1.20;;
81180;SDS011;70650;51.408;7.132;2023-07-20T12:55:22;3.00;;;1.30;;
81180;SDS011;70650;51.408;7.132;2023-07-20T12:57:47;2.50;;;1.00;;
81180;SDS011;70650;51.408;7.132;2023-07-20T13:00:13;2.00;;;1.08;;
81180;SDS011;70650;51.408;7.132;2023-07-20T13:02:39;2.97;;;1.30;;
81180;SDS011;70650;51.408;7.132;2023-07-20T13:05:06;3.92;;;1.30;;
81180;SDS011;70650;51.408;7.132;2023-07-20T13:07:35;3.65;;;1.27;;
81180;SDS011;70650;51.408;7.132;2023-07-20T13:10:04;3.28;;;1.30;;
81180;SDS011;70650;51.408;7.132;2023-07-20T13:12:31;4.25;;;1.60;;
81180;SDS011;70650;51.408;7.132;2023-07-20T13:14:57;2.80;;;1.27;;
81180;SDS011;70650;51.408;7.132;2023-07-20T13:17:27;2.88;;;1.33;;
81180;SDS011;70650;51.408;7.132;2023-07-20T13:19:52;3.03;;;1.38;;
81180;SDS011;70650;51.408;7.132;2023-07-20T13:22:18;3.47;;;1.27;;
81180;SDS011;70650;51.408;7.132;2023-07-20T13:24:44;3.60;;;1.40;;
81180;SDS011;70650;51.408;7.132;2023-07-20T13:27:13;3.95;;;1.50;;
81180;SDS011;70650;51.408;7.132;2023-07-20T13:29:39;2.78;;;1.10;;
81180;SDS011;70650;51.408;7.132;2023-07-20T13:32:04;3.03;;;1.23;;
81180;SDS011;70650;51.408;7.132;2023-07-20T13:34:31;4.22;;;1.30;;
81180;SDS011;70650;51.408;7.132;2023-07-20T13:36:56;3.10;;;1.20;;
81180;SDS011;70650;51.408;7.132;2023-07-20T13:39:22;4.20;;;1.60;;
81180;SDS011;70650;51.408;7.132;2023-07-20T13:41:49;4.50;;;1.67;;
81180;SDS011;70650;51.408;7.132;2023-07-20T13:44:14;2.60;;;1.20;;
81180;SDS011;70650;51.408;7.132;2023-07-20T13:46:40;1.70;;;0.97;;
81180;SDS011;70650;51.408;7.132;2023-07-20T13:49:05;3.10;;;1.20;;
81180;SDS011;70650;51.408;7.132;2023-07-20T13:51:30;2.90;;;1.20;;
81180;SDS011;70650;51.408;7.132;2023-07-20T13:53:56;2.20;;;0.95;;
81180;SDS011;70650;51.408;7.132;2023-07-20T13:56:22;2.85;;;0.75;;
81180;SDS011;70650;51.408;7.132;2023-07-20T13:58:49;2.20;;;0.90;;
81180;SDS011;70650;51.408;7.132;2023-07-20T14:01:15;2.42;;;1.00;;
81180;SDS011;70650;51.408;7.132;2023-07-20T14:03:41;1.60;;;0.80;;
81180;SDS011;70650;51.408;7.132;2023-07-20T14:06:06;3.60;;;1.00;;
81180;SDS011;70650;51.408;7.132;2023-07-20T14:08:31;3.00;;;1.00;;
81180;SDS011;70650;51.408;7.132;2023-07-20T14:10:57;2.88;;;1.00;;
81180;SDS011;70650;51.408;7.132;2023-07-20T14:13:23;2.58;;;1.00;;
81180;SDS011;70650;51.408;7.132;2023-07-20T14:15:48;3.03;;;0.90;;
81180;SDS011;70650;51.408;7.132;2023-07-20T14:18:15;2.78;;;0.80;;
81180;SDS011;70650;51.408;7.132;2023-07-20T14:20:40;2.67;;;0.87;;
81180;SDS011;70650;51.408;7.132;2023-07-20T14:23:06;2.45;;;0.80;;
81180;SDS011;70650;51.408;7.132;2023-07-20T14:25:31;2.05;;;0.90;;
81180;SDS011;70650;51.408;7.132;2023-07-20T14:27:58;3.10;;;0.70;;
81180;SDS011;70650;51.408;7.132;2023-07-20T14:30:24;2.28;;;0.80;;
81180;SDS011;70650;51.408;7.132;2023-07-20T14:32:49;2.30;;;0.60;;
81180;SDS011;70650;51.408;7.132;2023-07-20T14:35:14;1.67;;;0.70;;
81180;SDS011;70650;51.408;7.132;2023-07-20T14:37:40;3.23;;;0.87;;
81180;SDS011;70650;51.408;7.132;2023-07-20T14:40:05;2.33;;;0.70;;
81180;SDS011;70650;51.408;7.132;2023-07-20T14:42:31;1.90;;;0.63;;
81180;SDS011;70650;51.408;7.132;2023-07-20T14:44:57;2.90;;;0.82;;
81180;SDS011;70650;51.408;7.132;2023-07-20T14:47:23;2.58;;;0.85;;
81180;SDS011;70650;51.408;7.132;2023-07-20T14:49:48;4.05;;;0.73;;
81180;SDS011;70650;51.408;7.132;2023-07-20T14:52:13;2.33;;;0.70;;
81180;SDS011;70650;51.408;7.132;2023-07-20T14:54:39;1.42;;;0.60;;